createdAt,value
2022-10-23T00:00:53.530Z,15.01
2022-10-23T00:01:53.531Z,15.05
2022-10-23T00:02:53.659Z,14.99
2022-10-23T00:03:53.499Z,15.07
2022-10-23T00:04:53.478Z,15.10
2022-10-23T00:05:53.497Z,15.03
2022-10-23T00:06:53.471Z,15.10
2022-10-23T00:07:53.459Z,15.01
2022-10-23T00:08:53.441Z,15.05
2022-10-23T00:09:53.446Z,14.97
2022-10-23T00:10:53.445Z,14.99
2022-10-23T00:11:53.404Z,14.92
2022-10-23T00:12:53.420Z,15.05
2022-10-23T00:13:53.419Z,14.87
2022-10-23T00:14:53.377Z,14.92
2022-10-23T00:15:53.365Z,14.96
2022-10-23T00:16:53.361Z,14.92
2022-10-23T00:17:53.376Z,14.92
2022-10-23T00:18:53.350Z,14.89
2022-10-23T00:19:53.321Z,14.90
2022-10-23T00:20:53.320Z,14.86
2022-10-23T00:21:53.292Z,14.89
2022-10-23T00:22:53.312Z,14.90
2022-10-23T00:23:53.278Z,14.95
2022-10-23T00:24:53.271Z,14.92
2022-10-23T00:25:53.256Z,14.82
2022-10-23T00:26:53.278Z,14.77
2022-10-23T00:27:53.263Z,14.79
2022-10-23T00:28:53.230Z,14.85
2022-10-23T00:29:53.211Z,14.82
2022-10-23T00:30:53.204Z,14.77
2022-10-23T00:31:53.213Z,14.73
2022-10-23T00:32:53.191Z,14.73
2022-10-23T00:33:53.172Z,14.79
2022-10-23T00:34:53.171Z,14.74
2022-10-23T00:35:53.147Z,14.78
2022-10-23T00:36:53.171Z,14.69
2022-10-23T00:37:53.129Z,14.70
2022-10-23T00:38:53.138Z,14.59
2022-10-23T00:39:53.099Z,14.67
2022-10-23T00:40:53.093Z,14.63
2022-10-23T00:41:53.094Z,14.59
2022-10-23T00:42:53.091Z,14.59
2022-10-23T00:43:53.062Z,14.59
2022-10-23T00:44:53.058Z,14.55
2022-10-23T00:45:53.032Z,14.63
2022-10-23T00:46:53.027Z,14.56
2022-10-23T00:47:53.048Z,14.67
2022-10-23T00:48:53.008Z,14.59
2022-10-23T00:49:53.001Z,14.59
2022-10-23T00:50:52.996Z,14.52
2022-10-23T00:51:52.969Z,14.58
2022-10-23T00:52:52.983Z,14.59
2022-10-23T00:54:06.412Z,14.58
2022-10-23T00:54:53.937Z,14.52
2022-10-23T00:55:52.929Z,14.59
2022-10-23T00:56:52.924Z,14.59
2022-10-23T00:57:52.935Z,14.59
2022-10-23T00:58:52.904Z,14.56
2022-10-23T00:59:52.918Z,14.55
2022-10-23T01:00:52.867Z,14.61
2022-10-23T01:01:53.030Z,14.53
2022-10-23T01:02:52.848Z,14.48
2022-10-23T01:03:52.849Z,14.53
2022-10-23T01:04:52.849Z,14.49
2022-10-23T01:05:52.823Z,14.56
2022-10-23T01:06:52.857Z,14.52
2022-10-23T01:07:52.798Z,14.46
2022-10-23T01:08:53.225Z,14.53
2022-10-23T01:09:52.791Z,14.48
2022-10-23T01:10:52.767Z,14.55
2022-10-23T01:11:52.792Z,14.44
2022-10-23T01:12:52.747Z,14.48
2022-10-23T01:13:52.830Z,14.52
2022-10-23T01:14:52.717Z,14.46
2022-10-23T01:15:52.713Z,14.44
2022-10-23T01:16:52.710Z,14.48
2022-10-23T01:17:52.723Z,14.51
2022-10-23T01:18:52.676Z,14.41
2022-10-23T01:19:52.672Z,14.46
2022-10-23T01:20:52.664Z,14.41
2022-10-23T01:21:52.665Z,14.45
2022-10-23T01:22:52.686Z,14.40
2022-10-23T01:23:52.644Z,14.48
2022-10-23T01:24:52.629Z,14.40
2022-10-23T01:25:52.616Z,14.48
2022-10-23T01:26:52.597Z,14.48
2022-10-23T01:27:52.617Z,14.58
2022-10-23T01:28:52.593Z,14.51
2022-10-23T01:29:52.605Z,14.53
2022-10-23T01:30:52.558Z,14.38
2022-10-23T01:31:52.546Z,14.44
2022-10-23T01:32:52.538Z,14.45
2022-10-23T01:33:52.530Z,14.48
2022-10-23T01:34:52.531Z,14.49
2022-10-23T01:35:52.492Z,14.41
2022-10-23T01:36:52.489Z,14.45
2022-10-23T01:37:52.470Z,14.44
2022-10-23T01:38:52.595Z,14.40
2022-10-23T01:39:52.482Z,14.41
2022-10-23T01:40:52.469Z,14.49
2022-10-23T01:41:52.427Z,14.41
2022-10-23T01:42:52.440Z,14.44
2022-10-23T01:43:52.416Z,14.45
2022-10-23T01:44:52.406Z,14.46
2022-10-23T01:45:52.409Z,14.40
2022-10-23T01:46:52.381Z,14.41
2022-10-23T01:47:52.364Z,14.46
2022-10-23T01:48:52.348Z,14.51
2022-10-23T01:49:52.342Z,14.49
2022-10-23T01:50:52.355Z,14.45
2022-10-23T01:51:52.341Z,14.46
2022-10-23T01:52:52.302Z,14.45
2022-10-23T01:53:52.294Z,14.48
2022-10-23T01:54:52.307Z,14.53
2022-10-23T01:55:52.290Z,14.55
2022-10-23T01:56:52.263Z,14.45
2022-10-23T01:57:52.273Z,14.44
2022-10-23T01:58:52.245Z,14.44
2022-10-23T01:59:52.229Z,14.41
2022-10-23T02:00:52.259Z,14.38
2022-10-23T02:01:52.418Z,14.53
2022-10-23T02:02:52.196Z,14.48
2022-10-23T02:03:52.276Z,14.53
2022-10-23T02:04:52.199Z,14.46
2022-10-23T02:05:52.197Z,14.55
2022-10-23T02:06:52.164Z,14.48
2022-10-23T02:07:52.155Z,14.46
2022-10-23T02:08:52.144Z,14.41
2022-10-23T02:09:52.147Z,14.45
2022-10-23T02:10:52.139Z,14.49
2022-10-23T02:11:52.146Z,14.44
2022-10-23T02:12:52.092Z,14.40
2022-10-23T02:13:52.084Z,14.45
2022-10-23T02:14:52.074Z,14.49
2022-10-23T02:15:52.069Z,14.45
2022-10-23T02:16:52.066Z,14.41
2022-10-23T02:17:52.056Z,14.48
2022-10-23T02:18:52.032Z,14.55
2022-10-23T02:19:52.018Z,14.45
2022-10-23T02:20:52.005Z,14.45
2022-10-23T02:21:52.028Z,14.48
2022-10-23T02:22:51.977Z,14.45
2022-10-23T02:23:53.840Z,14.44
2022-10-23T02:24:51.953Z,14.49
2022-10-23T02:25:51.954Z,14.48
2022-10-23T02:26:52.022Z,14.44
2022-10-23T02:27:51.920Z,14.48
2022-10-23T02:28:51.996Z,14.40
2022-10-23T02:29:51.914Z,14.51
2022-10-23T02:30:51.916Z,14.58
2022-10-23T02:31:51.902Z,14.48
2022-10-23T02:32:51.873Z,14.53
2022-10-23T02:33:51.874Z,14.55
2022-10-23T02:34:51.904Z,14.45
2022-10-23T02:35:51.833Z,14.45
2022-10-23T02:36:51.854Z,14.45
2022-10-23T02:37:51.812Z,14.45
2022-10-23T02:38:51.806Z,14.46
2022-10-23T02:39:51.793Z,14.40
2022-10-23T02:40:51.790Z,14.46
2022-10-23T02:41:51.797Z,14.45
2022-10-23T02:42:51.804Z,14.38
2022-10-23T02:43:51.774Z,14.51
2022-10-23T02:44:51.746Z,14.55
2022-10-23T02:45:51.748Z,14.44
2022-10-23T02:46:51.745Z,14.38
2022-10-23T02:47:51.722Z,14.44
2022-10-23T02:48:51.691Z,14.45
2022-10-23T02:49:51.683Z,14.45
2022-10-23T02:50:51.684Z,14.49
2022-10-23T02:51:51.700Z,14.44
2022-10-23T02:52:51.676Z,14.55
2022-10-23T02:53:51.718Z,14.45
2022-10-23T02:54:51.642Z,14.56
2022-10-23T02:55:51.625Z,14.44
2022-10-23T02:56:51.648Z,14.52
2022-10-23T02:57:51.634Z,14.38
2022-10-23T02:58:51.605Z,14.46
2022-10-23T02:59:51.573Z,14.41
2022-10-23T03:00:51.579Z,14.53
2022-10-23T03:01:51.749Z,14.40
2022-10-23T03:02:51.566Z,14.45
2022-10-23T03:03:51.528Z,14.49
2022-10-23T03:04:51.521Z,14.40
2022-10-23T03:05:51.513Z,14.52
2022-10-23T03:06:51.508Z,14.51
2022-10-23T03:07:51.535Z,14.40
2022-10-23T03:08:51.482Z,14.45
2022-10-23T03:09:51.480Z,14.52
2022-10-23T03:10:51.482Z,14.49
2022-10-23T03:11:51.461Z,14.41
2022-10-23T03:12:51.475Z,14.45
2022-10-23T03:13:51.456Z,14.40
2022-10-23T03:14:51.426Z,14.49
2022-10-23T03:15:51.406Z,14.38
2022-10-23T03:16:51.436Z,14.37
2022-10-23T03:17:51.374Z,14.48
2022-10-23T03:18:51.366Z,14.44
2022-10-23T03:19:51.372Z,14.38
2022-10-23T03:20:51.355Z,14.48
2022-10-23T03:21:51.352Z,14.38
2022-10-23T03:22:51.326Z,14.44
2022-10-23T03:23:51.347Z,14.38
2022-10-23T03:24:51.308Z,14.40
2022-10-23T03:25:51.291Z,14.41
2022-10-23T03:26:51.301Z,14.40
2022-10-23T03:27:51.272Z,14.45
2022-10-23T03:28:51.299Z,14.37
2022-10-23T03:29:51.249Z,14.41
2022-10-23T03:30:51.266Z,14.40
2022-10-23T03:31:51.266Z,14.45
2022-10-23T03:32:51.217Z,14.37
2022-10-23T03:33:51.232Z,14.34
2022-10-23T03:34:51.205Z,14.34
2022-10-23T03:35:51.190Z,14.31
2022-10-23T03:36:51.210Z,14.34
2022-10-23T03:37:51.162Z,14.34
2022-10-23T03:38:51.154Z,14.27
2022-10-23T03:39:51.149Z,14.33
2022-10-23T03:40:51.127Z,14.26
2022-10-23T03:41:51.155Z,14.36
2022-10-23T03:42:51.108Z,14.31
2022-10-23T03:43:51.171Z,14.30
2022-10-23T03:44:51.083Z,14.28
2022-10-23T03:45:51.083Z,14.31
2022-10-23T03:46:51.079Z,14.36
2022-10-23T03:47:51.524Z,14.31
2022-10-23T03:48:51.066Z,14.26
2022-10-23T03:49:51.037Z,14.23
2022-10-23T03:50:51.035Z,14.22
2022-10-23T03:51:51.040Z,14.22
2022-10-23T03:52:51.004Z,14.22
2022-10-23T03:53:50.994Z,14.28
2022-10-23T03:54:50.971Z,14.19
2022-10-23T03:55:50.967Z,14.26
2022-10-23T03:56:53.703Z,14.27
2022-10-23T03:57:51.945Z,14.21
2022-10-23T03:58:50.926Z,14.21
2022-10-23T03:59:50.937Z,14.18
2022-10-23T04:00:50.921Z,14.23
2022-10-23T04:01:51.030Z,14.19
2022-10-23T04:02:50.936Z,14.15
2022-10-23T04:03:50.881Z,14.19
2022-10-23T04:04:50.860Z,14.13
2022-10-23T04:05:52.330Z,14.16
2022-10-23T04:06:50.842Z,14.15
2022-10-23T04:07:50.884Z,14.15
2022-10-23T04:08:50.827Z,14.13
2022-10-23T04:09:50.809Z,14.13
2022-10-23T04:10:50.819Z,14.08
2022-10-23T04:11:50.814Z,14.08
2022-10-23T04:12:50.820Z,14.09
2022-10-23T04:13:50.772Z,14.01
2022-10-23T04:14:50.755Z,14.01
2022-10-23T04:15:50.769Z,14.01
2022-10-23T04:16:50.748Z,14.03
2022-10-23T04:17:50.766Z,14.03
2022-10-23T04:18:50.730Z,14.03
2022-10-23T04:19:50.703Z,14.01
2022-10-23T04:20:50.717Z,14.00
2022-10-23T04:21:50.689Z,13.96
2022-10-23T04:22:50.696Z,13.93
2022-10-23T04:23:50.658Z,13.96
2022-10-23T04:24:50.655Z,13.90
2022-10-23T04:25:50.660Z,13.88
2022-10-23T04:26:50.625Z,13.91
2022-10-23T04:27:50.625Z,13.88
2022-10-23T04:28:50.644Z,13.97
2022-10-23T04:29:53.190Z,13.90
2022-10-23T04:30:50.577Z,13.97
2022-10-23T04:31:50.572Z,13.93
2022-10-23T04:32:50.592Z,13.91
2022-10-23T04:33:50.600Z,13.88
2022-10-23T04:34:50.555Z,13.86
2022-10-23T04:35:50.546Z,13.85
2022-10-23T04:36:50.519Z,13.85
2022-10-23T04:37:50.545Z,13.80
2022-10-23T04:38:50.494Z,13.85
2022-10-23T04:39:50.482Z,13.88
2022-10-23T04:40:50.475Z,13.82
2022-10-23T04:41:50.478Z,13.79
2022-10-23T04:42:50.451Z,13.82
2022-10-23T04:43:50.472Z,13.72
2022-10-23T04:44:50.438Z,13.72
2022-10-23T04:45:50.486Z,13.64
2022-10-23T04:46:50.419Z,13.63
2022-10-23T04:47:50.399Z,13.72
2022-10-23T04:48:50.397Z,13.71
2022-10-23T04:49:50.374Z,13.72
2022-10-23T04:50:50.418Z,13.72
2022-10-23T04:51:50.355Z,13.73
2022-10-23T04:52:50.349Z,13.72
2022-10-23T04:53:50.340Z,13.68
2022-10-23T04:54:50.360Z,13.67
2022-10-23T04:55:50.382Z,13.67
2022-10-23T04:56:50.312Z,13.61
2022-10-23T04:57:50.302Z,13.61
2022-10-23T04:58:50.287Z,13.61
2022-10-23T04:59:50.276Z,13.63
2022-10-23T05:00:50.356Z,13.57
2022-10-23T05:01:50.286Z,13.55
2022-10-23T05:02:50.237Z,13.51
2022-10-23T05:03:50.233Z,13.53
2022-10-23T05:04:50.218Z,13.54
2022-10-23T05:05:50.244Z,13.51
2022-10-23T05:06:50.284Z,13.53
2022-10-23T05:07:50.189Z,13.39
2022-10-23T05:08:50.171Z,13.49
2022-10-23T05:09:50.173Z,13.46
2022-10-23T05:10:50.154Z,13.46
2022-10-23T05:11:50.162Z,13.39
2022-10-23T05:12:50.164Z,13.35
2022-10-23T05:13:50.116Z,13.39
2022-10-23T05:14:50.111Z,13.38
2022-10-23T05:15:50.106Z,13.36
2022-10-23T05:16:50.118Z,13.32
2022-10-23T05:17:50.110Z,13.40
2022-10-23T05:18:50.069Z,13.29
2022-10-23T05:19:50.075Z,13.24
2022-10-23T05:20:50.066Z,13.32
2022-10-23T05:21:50.046Z,13.17
2022-10-23T05:22:50.070Z,13.36
2022-10-23T05:23:50.095Z,13.23
2022-10-23T05:24:50.688Z,13.17
2022-10-23T05:25:49.987Z,13.19
2022-10-23T05:26:49.973Z,13.35
2022-10-23T05:27:50.002Z,13.26
2022-10-23T05:28:49.963Z,13.17
2022-10-23T05:29:49.945Z,13.21
2022-10-23T05:30:49.941Z,13.20
2022-10-23T05:31:49.917Z,13.20
2022-10-23T05:32:49.956Z,13.24
2022-10-23T05:33:49.899Z,13.26
2022-10-23T05:34:49.890Z,13.09
2022-10-23T05:35:49.883Z,13.19
2022-10-23T05:36:49.870Z,13.09
2022-10-23T05:37:49.882Z,13.05
2022-10-23T05:38:49.868Z,13.14
2022-10-23T05:39:49.859Z,13.09
2022-10-23T05:40:49.858Z,13.04
2022-10-23T05:41:49.811Z,13.04
2022-10-23T05:42:49.801Z,13.05
2022-10-23T05:43:49.785Z,13.06
2022-10-23T05:44:49.804Z,13.01
2022-10-23T05:45:49.792Z,13.05
2022-10-23T05:46:49.760Z,13.01
2022-10-23T05:47:49.752Z,13.05
2022-10-23T05:48:49.770Z,13.05
2022-10-23T05:49:49.827Z,12.99
2022-10-23T05:50:49.724Z,12.95
2022-10-23T05:51:49.721Z,13.04
2022-10-23T05:52:49.710Z,12.93
2022-10-23T05:53:49.682Z,12.86
2022-10-23T05:54:49.698Z,13.02
2022-10-23T05:55:49.697Z,12.86
2022-10-23T05:56:49.643Z,12.79
2022-10-23T05:57:49.652Z,12.86
2022-10-23T05:58:49.623Z,12.90
2022-10-23T05:59:49.613Z,12.91
2022-10-23T06:00:49.650Z,12.91
2022-10-23T06:01:49.745Z,12.87
2022-10-23T06:02:49.590Z,12.93
2022-10-23T06:03:49.576Z,12.90
2022-10-23T06:04:49.562Z,12.84
2022-10-23T06:05:49.613Z,12.86
2022-10-23T06:06:49.534Z,12.83
2022-10-23T06:07:49.529Z,12.86
2022-10-23T06:08:49.558Z,12.76
2022-10-23T06:09:49.514Z,12.80
2022-10-23T06:10:49.511Z,12.80
2022-10-23T06:11:49.503Z,12.79
2022-10-23T06:12:49.474Z,12.79
2022-10-23T06:13:49.508Z,12.77
2022-10-23T06:14:49.485Z,12.79
2022-10-23T06:15:49.476Z,12.76
2022-10-23T06:16:49.423Z,12.73
2022-10-23T06:17:49.419Z,12.73
2022-10-23T06:18:49.402Z,12.72
2022-10-23T06:19:49.425Z,12.71
2022-10-23T06:20:49.415Z,12.71
2022-10-23T06:21:49.384Z,12.76
2022-10-23T06:22:49.359Z,12.77
2022-10-23T06:23:49.346Z,12.72
2022-10-23T06:24:49.345Z,12.69
2022-10-23T06:25:49.360Z,12.68
2022-10-23T06:26:49.338Z,12.77
2022-10-23T06:27:49.318Z,12.76
2022-10-23T06:28:49.322Z,12.65
2022-10-23T06:29:49.300Z,12.73
2022-10-23T06:30:49.300Z,12.59
2022-10-23T06:31:49.287Z,12.59
2022-10-23T06:32:49.256Z,12.62
2022-10-23T06:33:49.254Z,12.59
2022-10-23T06:34:49.259Z,12.71
2022-10-23T06:35:49.260Z,12.63
2022-10-23T06:36:49.212Z,12.59
2022-10-23T06:37:49.210Z,12.65
2022-10-23T06:38:49.224Z,12.61
2022-10-23T06:39:49.181Z,12.69
2022-10-23T06:40:49.248Z,12.61
2022-10-23T06:41:49.153Z,12.66
2022-10-23T06:42:49.178Z,12.65
2022-10-23T06:43:49.154Z,12.59
2022-10-23T06:44:49.133Z,12.58
2022-10-23T06:45:49.130Z,12.53
2022-10-23T06:46:49.108Z,12.53
2022-10-23T06:47:49.083Z,12.59
2022-10-23T06:48:49.078Z,12.54
2022-10-23T06:49:49.062Z,12.58
2022-10-23T06:50:49.079Z,12.59
2022-10-23T06:51:49.048Z,12.55
2022-10-23T06:52:49.054Z,12.55
2022-10-23T06:53:49.053Z,12.59
2022-10-23T06:54:49.021Z,12.58
2022-10-23T06:55:51.444Z,12.55
2022-10-23T06:56:50.005Z,12.54
2022-10-23T06:57:48.975Z,12.54
2022-10-23T06:58:48.990Z,12.61
2022-10-23T06:59:48.982Z,12.58
2022-10-23T07:00:49.062Z,12.54
2022-10-23T07:01:49.127Z,12.58
2022-10-23T07:02:48.921Z,12.55
2022-10-23T07:03:48.911Z,12.55
2022-10-23T07:04:48.900Z,12.51
2022-10-23T07:05:48.919Z,12.58
2022-10-23T07:06:48.901Z,12.62
2022-10-23T07:07:48.890Z,12.58
2022-10-23T07:08:48.852Z,12.55
2022-10-23T07:09:48.859Z,12.63
2022-10-23T07:10:48.840Z,12.61
2022-10-23T07:11:48.860Z,12.54
2022-10-23T07:12:48.855Z,12.61
2022-10-23T07:13:48.803Z,12.55
2022-10-23T07:14:48.812Z,12.62
2022-10-23T07:15:48.775Z,12.62
2022-10-23T07:16:48.790Z,12.62
2022-10-23T07:17:48.772Z,12.61
2022-10-23T07:18:48.806Z,12.59
2022-10-23T07:19:48.738Z,12.62
2022-10-23T07:20:48.735Z,12.62
2022-10-23T07:21:48.718Z,12.61
2022-10-23T07:22:48.703Z,12.66
2022-10-23T07:23:48.715Z,12.55
2022-10-23T07:24:48.708Z,12.55
2022-10-23T07:25:48.696Z,12.55
2022-10-23T07:26:48.661Z,12.59
2022-10-23T07:27:48.695Z,12.59
2022-10-23T07:28:48.671Z,12.68
2022-10-23T07:29:48.626Z,12.72
2022-10-23T07:30:48.634Z,12.73
2022-10-23T07:31:48.649Z,12.77
2022-10-23T07:32:48.647Z,12.66
2022-10-23T07:33:48.588Z,12.65
2022-10-23T07:34:48.592Z,12.72
2022-10-23T07:35:48.565Z,12.79
2022-10-23T07:36:48.549Z,12.71
2022-10-23T07:37:48.566Z,12.76
2022-10-23T07:38:48.605Z,12.73
2022-10-23T07:39:48.514Z,12.77
2022-10-23T07:40:48.512Z,12.73
2022-10-23T07:41:48.501Z,12.80
2022-10-23T07:42:48.481Z,12.77
2022-10-23T07:43:48.496Z,12.81
2022-10-23T07:44:48.508Z,12.83
2022-10-23T07:45:48.487Z,12.77
2022-10-23T07:46:48.467Z,12.87
2022-10-23T07:47:48.440Z,12.80
2022-10-23T07:48:48.434Z,12.84
2022-10-23T07:49:48.470Z,12.98
2022-10-23T07:50:48.397Z,12.90
2022-10-23T07:51:51.272Z,12.95
2022-10-23T07:52:48.451Z,12.93
2022-10-23T07:53:48.432Z,12.99
2022-10-23T07:54:48.382Z,12.91
2022-10-23T07:55:48.362Z,12.95
2022-10-23T07:56:48.350Z,13.05
2022-10-23T07:57:48.339Z,12.99
2022-10-23T07:58:48.353Z,13.01
2022-10-23T07:59:48.318Z,13.01
2022-10-23T08:00:48.331Z,12.99
2022-10-23T08:01:50.543Z,12.99
2022-10-23T08:02:48.298Z,13.02
2022-10-23T08:03:48.257Z,13.08
2022-10-23T08:04:48.253Z,13.09
2022-10-23T08:05:48.234Z,13.09
2022-10-23T08:06:48.250Z,13.06
2022-10-23T08:07:48.218Z,13.09
2022-10-23T08:08:48.240Z,13.19
2022-10-23T08:09:48.221Z,13.29
2022-10-23T08:10:48.184Z,13.11
2022-10-23T08:11:48.196Z,13.17
2022-10-23T08:12:48.185Z,13.19
2022-10-23T08:13:48.148Z,13.19
2022-10-23T08:14:48.184Z,13.16
2022-10-23T08:15:48.137Z,13.24
2022-10-23T08:16:48.113Z,13.30
2022-10-23T08:17:48.127Z,13.26
2022-10-23T08:18:48.113Z,13.42
2022-10-23T08:19:48.096Z,13.38
2022-10-23T08:20:48.139Z,13.42
2022-10-23T08:21:48.081Z,13.42
2022-10-23T08:22:48.072Z,13.40
2022-10-23T08:23:48.037Z,13.39
2022-10-23T08:24:48.035Z,13.47
2022-10-23T08:25:48.027Z,13.39
2022-10-23T08:26:48.062Z,13.54
2022-10-23T08:27:50.370Z,13.53
2022-10-23T08:28:48.022Z,13.53
2022-10-23T08:29:50.784Z,13.53
2022-10-23T08:30:48.968Z,13.57
2022-10-23T08:31:47.952Z,13.57
2022-10-23T08:32:47.939Z,13.60
2022-10-23T08:34:47.940Z,13.61
2022-10-23T08:35:47.911Z,13.67
2022-10-23T08:36:47.894Z,13.65
2022-10-23T08:37:47.895Z,13.68
2022-10-23T08:38:47.881Z,13.72
2022-10-23T08:39:50.128Z,13.71
2022-10-23T08:40:47.852Z,13.75
2022-10-23T08:41:47.865Z,13.65
2022-10-23T08:42:47.872Z,13.71
2022-10-23T08:43:47.826Z,13.78
2022-10-23T08:44:47.817Z,13.79
2022-10-23T08:45:47.801Z,13.76
2022-10-23T08:46:47.823Z,13.79
2022-10-23T08:47:47.808Z,13.86
2022-10-23T08:48:47.774Z,13.80
2022-10-23T08:49:47.786Z,13.85
2022-10-23T08:50:47.782Z,13.80
2022-10-23T08:51:47.735Z,13.88
2022-10-23T08:52:47.725Z,13.91
2022-10-23T08:53:47.777Z,13.93
2022-10-23T08:54:47.727Z,13.93
2022-10-23T08:55:47.699Z,13.85
2022-10-23T08:56:47.700Z,13.98
2022-10-23T08:57:47.672Z,13.98
2022-10-23T08:58:47.697Z,13.94
2022-10-23T08:59:47.675Z,14.00
2022-10-23T09:00:47.835Z,13.91
2022-10-23T09:01:47.814Z,14.00
2022-10-23T09:02:47.641Z,13.98
2022-10-23T09:03:47.637Z,14.00
2022-10-23T09:04:47.623Z,14.01
2022-10-23T09:05:47.587Z,14.03
2022-10-23T09:06:47.635Z,14.04
2022-10-23T09:07:47.566Z,14.05
2022-10-23T09:08:47.595Z,14.05
2022-10-23T09:09:47.543Z,14.09
2022-10-23T09:10:50.617Z,14.01
2022-10-23T09:11:47.628Z,14.09
2022-10-23T09:12:47.510Z,14.04
2022-10-23T09:13:47.520Z,14.11
2022-10-23T09:14:47.519Z,14.15
2022-10-23T09:15:47.477Z,14.08
2022-10-23T09:16:47.465Z,14.19
2022-10-23T09:17:47.497Z,14.16
2022-10-23T09:18:47.479Z,14.19
2022-10-23T09:19:47.457Z,14.15
2022-10-23T09:20:47.429Z,14.18
2022-10-23T09:21:47.408Z,14.19
2022-10-23T09:22:47.438Z,14.21
2022-10-23T09:23:47.422Z,14.31
2022-10-23T09:24:51.554Z,14.23
2022-10-23T09:25:48.373Z,14.31
2022-10-23T09:26:47.372Z,14.23
2022-10-23T09:27:49.581Z,14.22
2022-10-23T09:28:47.348Z,14.22
2022-10-23T09:29:47.321Z,14.34
2022-10-23T09:30:47.337Z,14.26
2022-10-23T09:31:47.301Z,14.31
2022-10-23T09:32:47.288Z,14.33
2022-10-23T09:33:47.277Z,14.28
2022-10-23T09:34:47.299Z,14.28
2022-10-23T09:35:47.285Z,14.33
2022-10-23T09:36:47.276Z,14.31
2022-10-23T09:37:47.242Z,14.34
2022-10-23T09:38:47.245Z,14.40
2022-10-23T09:39:47.221Z,14.38
2022-10-23T09:40:47.233Z,14.36
2022-10-23T09:41:47.302Z,14.34
2022-10-23T09:42:47.180Z,14.40
2022-10-23T09:43:47.174Z,14.44
2022-10-23T09:44:47.158Z,14.44
2022-10-23T09:45:47.244Z,14.52
2022-10-23T09:46:47.187Z,14.56
2022-10-23T09:47:47.129Z,14.45
2022-10-23T09:48:47.126Z,14.48
2022-10-23T09:49:47.112Z,14.52
2022-10-23T09:50:47.114Z,14.52
2022-10-23T09:51:47.109Z,14.49
2022-10-23T09:52:47.158Z,14.56
2022-10-23T09:53:47.062Z,14.61
2022-10-23T09:54:47.095Z,14.63
2022-10-23T09:55:47.037Z,14.59
2022-10-23T09:57:47.453Z,14.55
2022-10-23T09:58:47.003Z,14.56
2022-10-23T09:59:47.019Z,14.59
2022-10-23T10:00:47.056Z,14.59
2022-10-23T10:01:47.117Z,14.58
2022-10-23T10:02:46.958Z,14.73
2022-10-23T10:03:46.961Z,14.61
2022-10-23T10:04:46.959Z,14.71
2022-10-23T10:05:46.931Z,14.69
2022-10-23T10:06:46.919Z,14.69
2022-10-23T10:07:46.917Z,14.82
2022-10-23T10:08:46.893Z,14.79
2022-10-23T10:09:46.913Z,14.86
2022-10-23T10:10:46.894Z,14.89
2022-10-23T10:11:46.863Z,15.01
2022-10-23T10:12:46.852Z,15.08
2022-10-23T10:13:46.861Z,15.14
2022-10-23T10:14:46.857Z,15.23
2022-10-23T10:15:46.862Z,15.29
2022-10-23T10:16:46.813Z,15.33
2022-10-23T10:17:46.802Z,15.48
2022-10-23T10:18:46.796Z,15.58
2022-10-23T10:19:46.792Z,15.58
2022-10-23T10:20:46.766Z,15.70
2022-10-23T10:21:46.763Z,15.80
2022-10-23T10:22:46.792Z,15.81
2022-10-23T10:23:46.772Z,15.90
2022-10-23T10:24:46.768Z,15.99
2022-10-23T10:25:52.012Z,15.99
2022-10-23T10:26:47.729Z,16.10
2022-10-23T10:27:46.882Z,16.21
2022-10-23T10:28:46.683Z,16.24
2022-10-23T10:29:46.672Z,16.28
2022-10-23T10:30:46.729Z,16.43
2022-10-23T10:31:50.560Z,16.49
2022-10-23T10:32:47.660Z,16.59
2022-10-23T10:33:46.628Z,16.61
2022-10-23T10:34:46.654Z,16.69
2022-10-23T10:35:46.607Z,16.73
2022-10-23T10:36:46.616Z,16.83
2022-10-23T10:37:49.398Z,16.90
2022-10-23T10:38:46.574Z,16.98
2022-10-23T10:39:46.559Z,17.02
2022-10-23T10:40:46.575Z,17.10
2022-10-23T10:41:46.538Z,17.10
2022-10-23T10:42:46.570Z,17.22
2022-10-23T10:43:46.546Z,17.24
2022-10-23T10:44:46.510Z,17.27
2022-10-23T10:45:46.539Z,17.43
2022-10-23T10:46:46.600Z,17.41
2022-10-23T10:47:46.468Z,17.49
2022-10-23T10:48:46.473Z,17.52
2022-10-23T10:49:46.458Z,17.69
2022-10-23T10:50:46.476Z,17.78
2022-10-23T10:51:46.439Z,17.76
2022-10-23T10:52:49.101Z,17.88
2022-10-23T10:53:46.414Z,17.87
2022-10-23T10:54:46.430Z,18.02
2022-10-23T10:55:46.417Z,18.06
2022-10-23T10:56:46.392Z,18.03
2022-10-23T10:57:46.709Z,18.18
2022-10-23T10:58:46.408Z,18.18
2022-10-23T10:59:46.365Z,18.27
2022-10-23T11:00:46.382Z,18.36
2022-10-23T11:01:46.520Z,18.30
2022-10-23T11:02:46.310Z,18.42
2022-10-23T11:03:46.306Z,18.58
2022-10-23T11:04:46.322Z,18.54
2022-10-23T11:05:46.348Z,18.58
2022-10-23T11:06:46.277Z,18.66
2022-10-23T11:07:46.413Z,18.71
2022-10-23T11:08:57.621Z,18.75
2022-10-23T11:09:47.265Z,18.81
2022-10-23T11:10:46.246Z,18.78
2022-10-23T11:11:46.210Z,18.85
2022-10-23T11:12:46.223Z,18.91
2022-10-23T11:13:46.201Z,18.89
2022-10-23T11:14:46.227Z,18.94
2022-10-23T11:15:46.269Z,18.97
2022-10-23T11:16:46.177Z,19.00
2022-10-23T11:17:46.402Z,19.01
2022-10-23T11:18:46.168Z,19.12
2022-10-23T11:19:46.177Z,19.04
2022-10-23T11:20:46.133Z,19.04
2022-10-23T11:21:46.115Z,19.15
2022-10-23T11:22:46.317Z,19.20
2022-10-23T11:23:46.081Z,19.22
2022-10-23T11:24:49.090Z,19.27
2022-10-23T11:25:46.062Z,19.22
2022-10-23T11:26:46.054Z,19.23
2022-10-23T11:27:46.333Z,19.30
2022-10-23T11:28:46.026Z,19.22
2022-10-23T11:29:46.045Z,19.26
2022-10-23T11:30:46.064Z,19.24
2022-10-23T11:31:46.003Z,19.31
2022-10-23T11:32:45.982Z,19.35
2022-10-23T11:33:45.976Z,19.34
2022-10-23T11:34:45.958Z,19.39
2022-10-23T11:35:45.981Z,19.41
2022-10-23T11:36:45.961Z,19.44
2022-10-23T11:37:46.165Z,19.38
2022-10-23T11:38:45.926Z,19.50
2022-10-23T11:39:45.905Z,19.45
2022-10-23T11:40:45.989Z,19.52
2022-10-23T11:41:45.885Z,19.57
2022-10-23T11:42:46.247Z,19.50
2022-10-23T11:43:45.869Z,19.50
2022-10-23T11:44:45.871Z,19.62
2022-10-23T11:45:45.847Z,19.59
2022-10-23T11:46:45.933Z,19.54
2022-10-23T11:47:45.875Z,19.63
2022-10-23T11:48:45.808Z,19.68
2022-10-23T11:49:45.805Z,19.63
2022-10-23T11:50:45.803Z,19.72
2022-10-23T11:51:45.799Z,19.70
2022-10-23T11:52:56.195Z,19.68
2022-10-23T11:53:46.758Z,19.75
2022-10-23T11:54:45.746Z,19.70
2022-10-23T11:55:45.747Z,19.74
2022-10-23T11:56:45.762Z,19.77
2022-10-23T11:57:45.739Z,19.77
2022-10-23T11:58:45.711Z,19.86
2022-10-23T11:59:45.717Z,19.84
2022-10-23T12:00:45.740Z,19.86
2022-10-23T12:01:45.892Z,19.90
2022-10-23T12:02:46.029Z,19.87
2022-10-23T12:03:45.679Z,19.94
2022-10-23T12:04:45.662Z,19.96
2022-10-23T12:05:45.785Z,19.94
2022-10-23T12:06:45.627Z,19.99
2022-10-23T12:07:46.038Z,19.96
2022-10-23T12:08:45.592Z,19.99
2022-10-23T12:09:45.611Z,19.97
2022-10-23T12:10:45.573Z,20.12
2022-10-23T12:11:45.557Z,19.96
2022-10-23T12:12:45.551Z,20.07
2022-10-23T12:13:45.568Z,20.07
2022-10-23T12:14:45.528Z,20.19
2022-10-23T12:15:45.554Z,20.19
2022-10-23T12:16:45.507Z,20.19
2022-10-23T12:17:45.777Z,20.15
2022-10-23T12:18:45.537Z,20.19
2022-10-23T12:19:45.498Z,20.22
2022-10-23T12:20:45.480Z,20.22
2022-10-23T12:21:45.492Z,20.23
2022-10-23T12:22:45.471Z,20.26
2022-10-23T12:23:48.094Z,20.27
2022-10-23T12:24:45.425Z,20.33
2022-10-23T12:25:45.423Z,20.33
2022-10-23T12:26:45.432Z,20.34
2022-10-23T12:27:45.584Z,20.36
2022-10-23T12:28:45.382Z,20.36
2022-10-23T12:29:45.395Z,20.36
2022-10-23T12:30:45.410Z,20.29
2022-10-23T12:31:47.814Z,20.37
2022-10-23T12:32:45.676Z,20.39
2022-10-23T12:33:45.334Z,20.36
2022-10-23T12:34:45.380Z,20.37
2022-10-23T12:35:45.359Z,20.41
2022-10-23T12:36:45.323Z,20.48
2022-10-23T12:37:45.295Z,20.42
2022-10-23T12:38:45.273Z,20.41
2022-10-23T12:39:45.294Z,20.49
2022-10-23T12:40:45.252Z,20.55
2022-10-23T12:41:45.261Z,20.42
2022-10-23T12:42:45.580Z,20.58
2022-10-23T12:43:45.227Z,20.56
2022-10-23T12:44:45.243Z,20.61
2022-10-23T12:45:45.202Z,20.65
2022-10-23T12:46:45.192Z,20.64
2022-10-23T12:47:45.177Z,20.61
2022-10-23T12:48:45.174Z,20.58
2022-10-23T12:49:45.198Z,20.61
2022-10-23T12:50:45.170Z,20.56
2022-10-23T12:51:45.184Z,20.58
2022-10-23T12:52:45.408Z,20.61
2022-10-23T12:53:45.113Z,20.64
2022-10-23T12:54:45.130Z,20.67